sensor_id;sensor_type;location;lat;lon;timestamp;temperature;humidity
1988;DHT22;12775;46.994;15.498;2023-10-31T00:02:12;16.60;99.90
1988;DHT22;12775;46.994;15.498;2023-10-31T00:04:40;16.60;99.90
1988;DHT22;12775;46.994;15.498;2023-10-31T00:07:07;16.60;99.90
1988;DHT22;12775;46.994;15.498;2023-10-31T00:09:34;16.60;99.90
1988;DHT22;12775;46.994;15.498;2023-10-31T00:12:02;16.60;99.90
1988;DHT22;12775;46.994;15.498;2023-10-31T00:14:29;16.50;99.90
1988;DHT22;12775;46.994;15.498;2023-10-31T00:16:57;16.40;99.90
1988;DHT22;12775;46.994;15.498;2023-10-31T00:19:24;16.40;99.90
1988;DHT22;12775;46.994;15.498;2023-10-31T00:21:51;16.50;99.90
1988;DHT22;12775;46.994;15.498;2023-10-31T00:24:19;16.50;99.90
1988;DHT22;12775;46.994;15.498;2023-10-31T00:26:46;16.50;99.90
1988;DHT22;12775;46.994;15.498;2023-10-31T00:29:13;16.60;99.90
1988;DHT22;12775;46.994;15.498;2023-10-31T00:31:41;16.60;99.90
1988;DHT22;12775;46.994;15.498;2023-10-31T00:34:08;16.70;99.90
1988;DHT22;12775;46.994;15.498;2023-10-31T00:36:35;16.60;99.90
1988;DHT22;12775;46.994;15.498;2023-10-31T00:39:01;16.70;99.90
1988;DHT22;12775;46.994;15.498;2023-10-31T00:41:28;16.80;99.90
1988;DHT22;12775;46.994;15.498;2023-10-31T00:43:54;16.80;99.90
1988;DHT22;12775;46.994;15.498;2023-10-31T00:46:22;16.90;99.90
1988;DHT22;12775;46.994;15.498;2023-10-31T00:48:49;17.00;99.90
1988;DHT22;12775;46.994;15.498;2023-10-31T00:51:16;17.00;99.90
1988;DHT22;12775;46.994;15.498;2023-10-31T00:53:44;17.10;99.90
1988;DHT22;12775;46.994;15.498;2023-10-31T00:56:11;17.10;99.90
1988;DHT22;12775;46.994;15.498;2023-10-31T00:58:39;17.10;99.90
1988;DHT22;12775;46.994;15.498;2023-10-31T01:01:06;17.10;99.90
1988;DHT22;12775;46.994;15.498;2023-10-31T01:03:33;17.00;99.90
1988;DHT22;12775;46.994;15.498;2023-10-31T01:06:01;17.00;99.90
1988;DHT22;12775;46.994;15.498;2023-10-31T01:08:28;17.00;99.90
1988;DHT22;12775;46.994;15.498;2023-10-31T01:10:55;16.90;99.90
1988;DHT22;12775;46.994;15.498;2023-10-31T01:13:23;16.90;99.90
1988;DHT22;12775;46.994;15.498;2023-10-31T01:15:50;16.80;99.90
1988;DHT22;12775;46.994;15.498;2023-10-31T01:18:17;16.80;99.90
1988;DHT22;12775;46.994;15.498;2023-10-31T01:20:45;16.80;99.90
1988;DHT22;12775;46.994;15.498;2023-10-31T01:23:12;16.80;99.90
1988;DHT22;12775;46.994;15.498;2023-10-31T01:25:40;16.70;99.90
1988;DHT22;12775;46.994;15.498;2023-10-31T01:28:07;16.70;99.90
1988;DHT22;12775;46.994;15.498;2023-10-31T01:30:34;16.70;99.90
1988;DHT22;12775;46.994;15.498;2023-10-31T01:33:02;16.70;99.90
1988;DHT22;12775;46.994;15.498;2023-10-31T01:35:29;16.70;99.90
1988;DHT22;12775;46.994;15.498;2023-10-31T01:37:56;16.80;99.90
1988;DHT22;12775;46.994;15.498;2023-10-31T01:40:24;16.80;99.90
1988;DHT22;12775;46.994;15.498;2023-10-31T01:42:51;16.80;99.90
1988;DHT22;12775;46.994;15.498;2023-10-31T01:45:18;16.70;99.90
1988;DHT22;12775;46.994;15.498;2023-10-31T01:47:46;16.60;99.90
1988;DHT22;12775;46.994;15.498;2023-10-31T01:50:13;16.50;99.90
1988;DHT22;12775;46.994;15.498;2023-10-31T01:52:41;16.50;99.90
1988;DHT22;12775;46.994;15.498;2023-10-31T01:55:09;16.50;99.90
1988;DHT22;12775;46.994;15.498;2023-10-31T01:57:36;16.50;99.90
1988;DHT22;12775;46.994;15.498;2023-10-31T02:00:03;16.50;99.90
1988;DHT22;12775;46.994;15.498;2023-10-31T02:02:31;16.50;99.90
1988;DHT22;12775;46.994;15.498;2023-10-31T02:04:59;16.50;99.90
1988;DHT22;12775;46.994;15.498;2023-10-31T02:07:25;16.40;99.90
1988;DHT22;12775;46.994;15.498;2023-10-31T02:09:53;16.40;99.90
1988;DHT22;12775;46.994;15.498;2023-10-31T02:12:32;16.30;99.90
1988;DHT22;12775;46.994;15.498;2023-10-31T02:14:58;16.10;99.90
1988;DHT22;12775;46.994;15.498;2023-10-31T02:17:26;16.10;99.90
1988;DHT22;12775;46.994;15.498;2023-10-31T02:19:53;16.10;99.90
1988;DHT22;12775;46.994;15.498;2023-10-31T02:22:21;16.10;99.90
1988;DHT22;12775;46.994;15.498;2023-10-31T02:24:48;16.10;99.90
1988;DHT22;12775;46.994;15.498;2023-10-31T02:27:15;16.10;99.90
1988;DHT22;12775;46.994;15.498;2023-10-31T02:29:43;16.00;99.90
1988;DHT22;12775;46.994;15.498;2023-10-31T02:32:10;15.90;99.90
1988;DHT22;12775;46.994;15.498;2023-10-31T02:34:37;15.90;99.90
1988;DHT22;12775;46.994;15.498;2023-10-31T02:37:05;15.90;99.90
1988;DHT22;12775;46.994;15.498;2023-10-31T02:39:33;15.90;99.90
1988;DHT22;12775;46.994;15.498;2023-10-31T02:42:00;15.90;99.90
1988;DHT22;12775;46.994;15.498;2023-10-31T02:44:28;15.90;99.90
1988;DHT22;12775;46.994;15.498;2023-10-31T02:46:55;15.80;99.90
1988;DHT22;12775;46.994;15.498;2023-10-31T02:49:21;15.80;99.90
1988;DHT22;12775;46.994;15.498;2023-10-31T02:51:49;15.80;99.90
1988;DHT22;12775;46.994;15.498;2023-10-31T02:54:16;15.70;99.90
1988;DHT22;12775;46.994;15.498;2023-10-31T02:56:44;15.60;99.90
1988;DHT22;12775;46.994;15.498;2023-10-31T02:59:11;15.60;99.90
1988;DHT22;12775;46.994;15.498;2023-10-31T03:01:38;15.60;99.90
1988;DHT22;12775;46.994;15.498;2023-10-31T03:04:06;15.60;99.90
1988;DHT22;12775;46.994;15.498;2023-10-31T03:06:33;15.60;99.90
1988;DHT22;12775;46.994;15.498;2023-10-31T03:09:00;15.70;99.90
1988;DHT22;12775;46.994;15.498;2023-10-31T03:11:28;15.70;99.90
1988;DHT22;12775;46.994;15.498;2023-10-31T03:13:55;15.80;99.90
1988;DHT22;12775;46.994;15.498;2023-10-31T03:16:22;15.80;99.90
1988;DHT22;12775;46.994;15.498;2023-10-31T03:18:50;15.90;99.90
1988;DHT22;12775;46.994;15.498;2023-10-31T03:21:17;15.90;99.90
1988;DHT22;12775;46.994;15.498;2023-10-31T03:23:47;16.00;99.90
1988;DHT22;12775;46.994;15.498;2023-10-31T03:26:13;15.90;99.90
1988;DHT22;12775;46.994;15.498;2023-10-31T03:28:40;16.10;99.90
1988;DHT22;12775;46.994;15.498;2023-10-31T03:31:07;16.10;99.90
1988;DHT22;12775;46.994;15.498;2023-10-31T03:33:34;16.30;99.90
1988;DHT22;12775;46.994;15.498;2023-10-31T03:36:01;16.30;99.90
1988;DHT22;12775;46.994;15.498;2023-10-31T03:38:28;16.40;99.90
1988;DHT22;12775;46.994;15.498;2023-10-31T03:40:56;16.50;99.90
1988;DHT22;12775;46.994;15.498;2023-10-31T03:43:23;16.50;99.90
1988;DHT22;12775;46.994;15.498;2023-10-31T03:45:51;16.50;99.90
1988;DHT22;12775;46.994;15.498;2023-10-31T03:48:18;16.40;99.90
1988;DHT22;12775;46.994;15.498;2023-10-31T03:50:45;16.30;99.90
1988;DHT22;12775;46.994;15.498;2023-10-31T03:53:12;16.20;99.90
1988;DHT22;12775;46.994;15.498;2023-10-31T03:55:40;16.10;99.90
1988;DHT22;12775;46.994;15.498;2023-10-31T03:58:07;16.00;99.90
1988;DHT22;12775;46.994;15.498;2023-10-31T04:00:35;16.00;99.90
1988;DHT22;12775;46.994;15.498;2023-10-31T04:03:02;16.00;99.90
1988;DHT22;12775;46.994;15.498;2023-10-31T04:05:29;16.10;99.90
1988;DHT22;12775;46.994;15.498;2023-10-31T04:07:57;16.10;99.90
1988;DHT22;12775;46.994;15.498;2023-10-31T04:10:23;16.10;99.90
1988;DHT22;12775;46.994;15.498;2023-10-31T04:12:50;16.10;99.90
1988;DHT22;12775;46.994;15.498;2023-10-31T04:15:17;16.10;99.90
1988;DHT22;12775;46.994;15.498;2023-10-31T04:17:45;16.00;99.90
1988;DHT22;12775;46.994;15.498;2023-10-31T04:20:11;16.00;99.90
1988;DHT22;12775;46.994;15.498;2023-10-31T04:22:39;16.00;99.90
1988;DHT22;12775;46.994;15.498;2023-10-31T04:25:06;16.00;99.90
1988;DHT22;12775;46.994;15.498;2023-10-31T04:27:34;16.00;99.90
1988;DHT22;12775;46.994;15.498;2023-10-31T04:30:01;16.10;99.90
1988;DHT22;12775;46.994;15.498;2023-10-31T04:32:29;16.00;99.90
1988;DHT22;12775;46.994;15.498;2023-10-31T04:34:56;16.00;99.90
1988;DHT22;12775;46.994;15.498;2023-10-31T04:37:23;16.00;99.90
1988;DHT22;12775;46.994;15.498;2023-10-31T04:39:51;16.10;99.90
1988;DHT22;12775;46.994;15.498;2023-10-31T04:42:18;16.20;99.90
1988;DHT22;12775;46.994;15.498;2023-10-31T04:44:45;16.30;99.90
1988;DHT22;12775;46.994;15.498;2023-10-31T04:47:13;16.40;99.90
1988;DHT22;12775;46.994;15.498;2023-10-31T04:49:40;16.40;99.90
1988;DHT22;12775;46.994;15.498;2023-10-31T04:52:07;16.60;99.90
1988;DHT22;12775;46.994;15.498;2023-10-31T04:54:35;16.60;99.90
1988;DHT22;12775;46.994;15.498;2023-10-31T04:57:03;16.70;99.90
1988;DHT22;12775;46.994;15.498;2023-10-31T04:59:30;16.80;99.90
1988;DHT22;12775;46.994;15.498;2023-10-31T05:01:57;16.80;99.90
1988;DHT22;12775;46.994;15.498;2023-10-31T05:04:25;16.90;99.90
1988;DHT22;12775;46.994;15.498;2023-10-31T05:06:51;16.90;99.90
1988;DHT22;12775;46.994;15.498;2023-10-31T05:09:19;17.00;99.90
1988;DHT22;12775;46.994;15.498;2023-10-31T05:11:46;17.00;99.90
1988;DHT22;12775;46.994;15.498;2023-10-31T05:14:14;17.00;99.90
1988;DHT22;12775;46.994;15.498;2023-10-31T05:16:42;17.00;99.90
1988;DHT22;12775;46.994;15.498;2023-10-31T05:19:09;17.00;99.90
1988;DHT22;12775;46.994;15.498;2023-10-31T05:21:35;17.00;99.90
1988;DHT22;12775;46.994;15.498;2023-10-31T05:24:04;16.90;99.90
1988;DHT22;12775;46.994;15.498;2023-10-31T05:26:31;16.90;99.90
1988;DHT22;12775;46.994;15.498;2023-10-31T05:28:58;16.90;99.90
1988;DHT22;12775;46.994;15.498;2023-10-31T05:31:26;16.80;99.90
1988;DHT22;12775;46.994;15.498;2023-10-31T05:33:53;16.80;99.90
1988;DHT22;12775;46.994;15.498;2023-10-31T05:36:21;16.80;99.90
1988;DHT22;12775;46.994;15.498;2023-10-31T05:38:48;16.80;99.90
1988;DHT22;12775;46.994;15.498;2023-10-31T05:41:15;16.80;99.90
1988;DHT22;12775;46.994;15.498;2023-10-31T05:43:43;16.70;99.90
1988;DHT22;12775;46.994;15.498;2023-10-31T05:46:10;16.70;99.90
1988;DHT22;12775;46.994;15.498;2023-10-31T05:48:38;16.80;99.90
1988;DHT22;12775;46.994;15.498;2023-10-31T05:51:04;16.70;99.90
1988;DHT22;12775;46.994;15.498;2023-10-31T05:53:31;16.70;99.90
1988;DHT22;12775;46.994;15.498;2023-10-31T05:55:58;16.70;99.90
1988;DHT22;12775;46.994;15.498;2023-10-31T05:58:25;16.70;99.90
1988;DHT22;12775;46.994;15.498;2023-10-31T06:00:52;16.70;99.90
1988;DHT22;12775;46.994;15.498;2023-10-31T06:03:19;16.60;99.90
1988;DHT22;12775;46.994;15.498;2023-10-31T06:05:47;16.60;99.90
1988;DHT22;12775;46.994;15.498;2023-10-31T06:08:14;16.50;99.90
1988;DHT22;12775;46.994;15.498;2023-10-31T06:10:41;16.50;99.90
1988;DHT22;12775;46.994;15.498;2023-10-31T06:13:09;16.50;99.90
1988;DHT22;12775;46.994;15.498;2023-10-31T06:15:36;16.50;99.90
1988;DHT22;12775;46.994;15.498;2023-10-31T06:18:03;16.50;99.90
1988;DHT22;12775;46.994;15.498;2023-10-31T06:20:32;16.40;99.90
1988;DHT22;12775;46.994;15.498;2023-10-31T06:22:59;16.40;99.90
1988;DHT22;12775;46.994;15.498;2023-10-31T06:25:26;16.40;99.90
1988;DHT22;12775;46.994;15.498;2023-10-31T06:27:53;16.30;99.90
1988;DHT22;12775;46.994;15.498;2023-10-31T06:30:21;16.30;99.90
1988;DHT22;12775;46.994;15.498;2023-10-31T06:32:48;16.30;99.90
1988;DHT22;12775;46.994;15.498;2023-10-31T06:35:19;16.30;99.90
1988;DHT22;12775;46.994;15.498;2023-10-31T06:37:45;16.30;99.90
1988;DHT22;12775;46.994;15.498;2023-10-31T06:40:13;16.30;99.90
1988;DHT22;12775;46.994;15.498;2023-10-31T06:42:40;16.30;99.90
1988;DHT22;12775;46.994;15.498;2023-10-31T06:45:08;16.40;99.90
1988;DHT22;12775;46.994;15.498;2023-10-31T06:47:35;16.40;99.90
1988;DHT22;12775;46.994;15.498;2023-10-31T06:50:01;16.30;99.90
1988;DHT22;12775;46.994;15.498;2023-10-31T06:52:28;16.30;99.90
1988;DHT22;12775;46.994;15.498;2023-10-31T06:54:54;16.30;99.90
1988;DHT22;12775;46.994;15.498;2023-10-31T06:57:21;16.30;99.90
1988;DHT22;12775;46.994;15.498;2023-10-31T06:59:49;16.40;99.90
1988;DHT22;12775;46.994;15.498;2023-10-31T07:02:16;16.30;99.90
1988;DHT22;12775;46.994;15.498;2023-10-31T07:04:44;16.40;99.90
1988;DHT22;12775;46.994;15.498;2023-10-31T07:07:11;16.30;99.90
1988;DHT22;12775;46.994;15.498;2023-10-31T07:09:38;16.30;99.90
1988;DHT22;12775;46.994;15.498;2023-10-31T07:12:07;16.30;99.90
1988;DHT22;12775;46.994;15.498;2023-10-31T07:14:34;16.30;99.90
1988;DHT22;12775;46.994;15.498;2023-10-31T07:17:00;16.30;99.90
1988;DHT22;12775;46.994;15.498;2023-10-31T07:19:27;16.30;99.90
1988;DHT22;12775;46.994;15.498;2023-10-31T07:21:53;16.30;99.90
1988;DHT22;12775;46.994;15.498;2023-10-31T07:24:20;16.30;99.90
1988;DHT22;12775;46.994;15.498;2023-10-31T07:26:47;16.20;99.90
1988;DHT22;12775;46.994;15.498;2023-10-31T07:29:13;16.10;99.90
1988;DHT22;12775;46.994;15.498;2023-10-31T07:31:41;16.00;99.90
1988;DHT22;12775;46.994;15.498;2023-10-31T07:34:07;16.00;99.90
1988;DHT22;12775;46.994;15.498;2023-10-31T07:36:34;15.80;99.90
1988;DHT22;12775;46.994;15.498;2023-10-31T07:39:01;15.80;99.90
1988;DHT22;12775;46.994;15.498;2023-10-31T07:41:29;15.50;99.90
1988;DHT22;12775;46.994;15.498;2023-10-31T07:43:56;15.40;99.90
1988;DHT22;12775;46.994;15.498;2023-10-31T07:46:23;15.30;99.90
1988;DHT22;12775;46.994;15.498;2023-10-31T07:48:51;15.30;99.90
1988;DHT22;12775;46.994;15.498;2023-10-31T07:51:18;15.40;99.90
1988;DHT22;12775;46.994;15.498;2023-10-31T07:53:45;15.40;99.90
1988;DHT22;12775;46.994;15.498;2023-10-31T07:56:14;15.40;99.90
1988;DHT22;12775;46.994;15.498;2023-10-31T07:58:40;15.40;99.90
1988;DHT22;12775;46.994;15.498;2023-10-31T08:01:07;15.30;99.90
1988;DHT22;12775;46.994;15.498;2023-10-31T08:03:34;15.40;99.90
1988;DHT22;12775;46.994;15.498;2023-10-31T08:06:01;15.40;99.90
1988;DHT22;12775;46.994;15.498;2023-10-31T08:08:28;15.50;99.90
1988;DHT22;12775;46.994;15.498;2023-10-31T08:10:55;15.60;99.90
1988;DHT22;12775;46.994;15.498;2023-10-31T08:13:22;15.60;99.90
1988;DHT22;12775;46.994;15.498;2023-10-31T08:15:49;15.70;99.90
1988;DHT22;12775;46.994;15.498;2023-10-31T08:18:16;15.80;99.90
1988;DHT22;12775;46.994;15.498;2023-10-31T08:20:43;15.80;99.90
1988;DHT22;12775;46.994;15.498;2023-10-31T08:23:11;15.90;99.90
1988;DHT22;12775;46.994;15.498;2023-10-31T08:25:38;15.90;99.90
1988;DHT22;12775;46.994;15.498;2023-10-31T08:28:05;15.90;99.90
1988;DHT22;12775;46.994;15.498;2023-10-31T08:30:33;15.90;99.90
1988;DHT22;12775;46.994;15.498;2023-10-31T08:33:00;15.90;99.90
1988;DHT22;12775;46.994;15.498;2023-10-31T08:35:28;15.90;99.90
1988;DHT22;12775;46.994;15.498;2023-10-31T08:37:55;15.90;99.90
1988;DHT22;12775;46.994;15.498;2023-10-31T08:40:22;15.90;99.90
1988;DHT22;12775;46.994;15.498;2023-10-31T08:42:50;16.00;99.90
1988;DHT22;12775;46.994;15.498;2023-10-31T08:45:17;16.00;99.90
1988;DHT22;12775;46.994;15.498;2023-10-31T08:47:44;16.00;99.90
1988;DHT22;12775;46.994;15.498;2023-10-31T08:50:12;16.10;99.90
1988;DHT22;12775;46.994;15.498;2023-10-31T08:52:39;16.10;99.90
1988;DHT22;12775;46.994;15.498;2023-10-31T08:55:07;16.20;99.90
1988;DHT22;12775;46.994;15.498;2023-10-31T08:57:34;16.30;99.90
1988;DHT22;12775;46.994;15.498;2023-10-31T09:00:01;16.40;99.90
1988;DHT22;12775;46.994;15.498;2023-10-31T09:02:29;16.40;99.90
1988;DHT22;12775;46.994;15.498;2023-10-31T09:04:56;16.50;99.90
1988;DHT22;12775;46.994;15.498;2023-10-31T09:07:23;16.50;99.90
1988;DHT22;12775;46.994;15.498;2023-10-31T09:09:51;16.60;99.90
1988;DHT22;12775;46.994;15.498;2023-10-31T09:12:18;16.50;99.90
1988;DHT22;12775;46.994;15.498;2023-10-31T09:14:46;16.60;99.90
1988;DHT22;12775;46.994;15.498;2023-10-31T09:17:13;16.60;99.90
1988;DHT22;12775;46.994;15.498;2023-10-31T09:19:40;16.70;99.90
1988;DHT22;12775;46.994;15.498;2023-10-31T09:22:08;16.70;99.90
1988;DHT22;12775;46.994;15.498;2023-10-31T09:24:35;16.70;99.90
1988;DHT22;12775;46.994;15.498;2023-10-31T09:27:03;16.70;99.90
1988;DHT22;12775;46.994;15.498;2023-10-31T09:29:30;16.70;99.90
1988;DHT22;12775;46.994;15.498;2023-10-31T09:31:57;16.70;99.90
1988;DHT22;12775;46.994;15.498;2023-10-31T09:34:23;16.70;99.90
1988;DHT22;12775;46.994;15.498;2023-10-31T09:36:51;16.00;99.90
1988;DHT22;12775;46.994;15.498;2023-10-31T09:39:18;15.60;99.90
1988;DHT22;12775;46.994;15.498;2023-10-31T09:41:46;15.20;99.90
1988;DHT22;12775;46.994;15.498;2023-10-31T09:44:13;15.10;99.90
1988;DHT22;12775;46.994;15.498;2023-10-31T09:46:40;14.90;99.90
1988;DHT22;12775;46.994;15.498;2023-10-31T09:49:08;14.80;99.90
1988;DHT22;12775;46.994;15.498;2023-10-31T09:51:35;14.70;99.90
1988;DHT22;12775;46.994;15.498;2023-10-31T09:54:02;14.80;99.90
1988;DHT22;12775;46.994;15.498;2023-10-31T09:56:30;14.80;99.90
1988;DHT22;12775;46.994;15.498;2023-10-31T09:58:58;14.80;99.90
1988;DHT22;12775;46.994;15.498;2023-10-31T10:01:24;14.70;99.90
1988;DHT22;12775;46.994;15.498;2023-10-31T10:03:52;14.80;99.90
1988;DHT22;12775;46.994;15.498;2023-10-31T10:06:20;14.70;99.90
1988;DHT22;12775;46.994;15.498;2023-10-31T10:08:46;14.70;99.90
1988;DHT22;12775;46.994;15.498;2023-10-31T10:11:14;14.70;99.90
1988;DHT22;12775;46.994;15.498;2023-10-31T10:13:41;14.70;99.90
1988;DHT22;12775;46.994;15.498;2023-10-31T10:16:09;14.70;99.90
1988;DHT22;12775;46.994;15.498;2023-10-31T10:18:36;14.60;99.90
1988;DHT22;12775;46.994;15.498;2023-10-31T10:21:04;14.60;99.90
1988;DHT22;12775;46.994;15.498;2023-10-31T10:23:32;14.60;99.90
1988;DHT22;12775;46.994;15.498;2023-10-31T10:25:59;14.60;99.90
1988;DHT22;12775;46.994;15.498;2023-10-31T10:28:26;14.70;99.90
1988;DHT22;12775;46.994;15.498;2023-10-31T10:30:54;14.70;99.90
1988;DHT22;12775;46.994;15.498;2023-10-31T10:33:21;14.70;99.90
1988;DHT22;12775;46.994;15.498;2023-10-31T10:35:48;14.80;99.90
1988;DHT22;12775;46.994;15.498;2023-10-31T10:38:16;14.90;99.90
1988;DHT22;12775;46.994;15.498;2023-10-31T10:40:44;15.00;99.90
1988;DHT22;12775;46.994;15.498;2023-10-31T10:43:19;15.00;99.90
1988;DHT22;12775;46.994;15.498;2023-10-31T10:45:42;14.90;99.90
1988;DHT22;12775;46.994;15.498;2023-10-31T10:48:12;14.90;99.90
1988;DHT22;12775;46.994;15.498;2023-10-31T10:50:39;14.90;99.90
1988;DHT22;12775;46.994;15.498;2023-10-31T10:53:07;14.90;99.90
1988;DHT22;12775;46.994;15.498;2023-10-31T10:55:33;14.80;99.90
1988;DHT22;12775;46.994;15.498;2023-10-31T10:58:06;14.80;99.90
1988;DHT22;12775;46.994;15.498;2023-10-31T11:00:32;14.80;99.90
1988;DHT22;12775;46.994;15.498;2023-10-31T11:02:59;14.70;99.90
1988;DHT22;12775;46.994;15.498;2023-10-31T11:05:26;14.70;99.90
1988;DHT22;12775;46.994;15.498;2023-10-31T11:07:54;14.60;99.90
1988;DHT22;12775;46.994;15.498;2023-10-31T11:10:21;14.70;99.90
1988;DHT22;12775;46.994;15.498;2023-10-31T11:12:49;14.80;99.90
1988;DHT22;12775;46.994;15.498;2023-10-31T11:15:17;14.80;99.90
1988;DHT22;12775;46.994;15.498;2023-10-31T11:17:44;15.00;99.90
1988;DHT22;12775;46.994;15.498;2023-10-31T11:20:12;15.10;99.90
1988;DHT22;12775;46.994;15.498;2023-10-31T11:22:41;15.10;99.90
1988;DHT22;12775;46.994;15.498;2023-10-31T11:25:08;15.20;99.90
1988;DHT22;12775;46.994;15.498;2023-10-31T11:27:35;15.40;99.90
1988;DHT22;12775;46.994;15.498;2023-10-31T11:30:05;15.40;99.90
1988;DHT22;12775;46.994;15.498;2023-10-31T11:32:32;15.40;99.90
1988;DHT22;12775;46.994;15.498;2023-10-31T11:35:00;15.20;99.90
1988;DHT22;12775;46.994;15.498;2023-10-31T11:37:34;15.20;99.90
1988;DHT22;12775;46.994;15.498;2023-10-31T11:40:17;15.10;99.90
1988;DHT22;12775;46.994;15.498;2023-10-31T11:42:44;15.00;99.90
1988;DHT22;12775;46.994;15.498;2023-10-31T11:45:11;15.10;99.90
1988;DHT22;12775;46.994;15.498;2023-10-31T11:47:47;15.10;99.90
1988;DHT22;12775;46.994;15.498;2023-10-31T11:50:14;15.10;99.90
1988;DHT22;12775;46.994;15.498;2023-10-31T11:52:42;15.20;99.90
1988;DHT22;12775;46.994;15.498;2023-10-31T11:55:11;15.20;99.90
1988;DHT22;12775;46.994;15.498;2023-10-31T11:57:39;15.20;99.90
1988;DHT22;12775;46.994;15.498;2023-10-31T12:00:19;15.00;99.90
1988;DHT22;12775;46.994;15.498;2023-10-31T12:02:34;15.00;99.90
1988;DHT22;12775;46.994;15.498;2023-10-31T12:05:10;14.90;99.90
1988;DHT22;12775;46.994;15.498;2023-10-31T12:07:43;14.70;99.90
1988;DHT22;12775;46.994;15.498;2023-10-31T12:10:11;14.80;99.90
1988;DHT22;12775;46.994;15.498;2023-10-31T12:12:38;14.60;99.90
1988;DHT22;12775;46.994;15.498;2023-10-31T12:15:06;14.50;99.90
1988;DHT22;12775;46.994;15.498;2023-10-31T12:17:34;14.40;99.90
1988;DHT22;12775;46.994;15.498;2023-10-31T12:20:06;14.40;99.90
1988;DHT22;12775;46.994;15.498;2023-10-31T12:22:34;14.20;99.90
1988;DHT22;12775;46.994;15.498;2023-10-31T12:25:05;14.10;99.90
1988;DHT22;12775;46.994;15.498;2023-10-31T12:27:43;14.10;99.90
1988;DHT22;12775;46.994;15.498;2023-10-31T12:30:13;14.00;99.90
1988;DHT22;12775;46.994;15.498;2023-10-31T12:32:40;13.90;99.90
1988;DHT22;12775;46.994;15.498;2023-10-31T12:35:08;13.80;99.90
1988;DHT22;12775;46.994;15.498;2023-10-31T12:37:34;13.70;99.90
1988;DHT22;12775;46.994;15.498;2023-10-31T12:40:02;13.60;99.90
1988;DHT22;12775;46.994;15.498;2023-10-31T12:42:30;13.30;99.90
1988;DHT22;12775;46.994;15.498;2023-10-31T12:44:56;13.20;99.90
1988;DHT22;12775;46.994;15.498;2023-10-31T12:47:23;13.30;99.90
1988;DHT22;12775;46.994;15.498;2023-10-31T12:50:13;13.20;99.90
1988;DHT22;12775;46.994;15.498;2023-10-31T12:52:45;13.20;99.90
1988;DHT22;12775;46.994;15.498;2023-10-31T12:55:13;13.30;99.90
1988;DHT22;12775;46.994;15.498;2023-10-31T12:57:39;13.20;99.90
1988;DHT22;12775;46.994;15.498;2023-10-31T13:00:07;13.30;99.90
1988;DHT22;12775;46.994;15.498;2023-10-31T13:02:35;13.20;99.90
1988;DHT22;12775;46.994;15.498;2023-10-31T13:05:12;13.20;99.90
1988;DHT22;12775;46.994;15.498;2023-10-31T13:07:40;13.30;99.90
1988;DHT22;12775;46.994;15.498;2023-10-31T13:10:07;13.30;99.90
1988;DHT22;12775;46.994;15.498;2023-10-31T13:12:35;13.20;99.90
1988;DHT22;12775;46.994;15.498;2023-10-31T13:15:01;13.20;99.90
1988;DHT22;12775;46.994;15.498;2023-10-31T13:17:29;13.30;99.90
1988;DHT22;12775;46.994;15.498;2023-10-31T13:19:56;13.20;99.90
1988;DHT22;12775;46.994;15.498;2023-10-31T13:22:24;13.10;99.90
1988;DHT22;12775;46.994;15.498;2023-10-31T13:24:51;13.00;99.90
1988;DHT22;12775;46.994;15.498;2023-10-31T13:27:18;13.00;99.90
1988;DHT22;12775;46.994;15.498;2023-10-31T13:29:46;13.00;99.90
1988;DHT22;12775;46.994;15.498;2023-10-31T13:32:12;13.00;99.90
1988;DHT22;12775;46.994;15.498;2023-10-31T13:34:39;13.10;99.90
1988;DHT22;12775;46.994;15.498;2023-10-31T13:37:05;13.10;99.90
1988;DHT22;12775;46.994;15.498;2023-10-31T13:39:32;13.20;99.90
1988;DHT22;12775;46.994;15.498;2023-10-31T13:41:59;13.30;99.90
1988;DHT22;12775;46.994;15.498;2023-10-31T13:44:27;13.30;99.90
1988;DHT22;12775;46.994;15.498;2023-10-31T13:46:54;13.30;99.90
1988;DHT22;12775;46.994;15.498;2023-10-31T13:49:21;13.40;99.90
1988;DHT22;12775;46.994;15.498;2023-10-31T13:51:49;13.40;99.90
1988;DHT22;12775;46.994;15.498;2023-10-31T13:54:16;13.30;99.90
1988;DHT22;12775;46.994;15.498;2023-10-31T13:56:44;13.40;99.90
1988;DHT22;12775;46.994;15.498;2023-10-31T13:59:11;13.40;99.90
1988;DHT22;12775;46.994;15.498;2023-10-31T14:01:38;13.40;99.90
1988;DHT22;12775;46.994;15.498;2023-10-31T14:04:06;13.40;99.90
1988;DHT22;12775;46.994;15.498;2023-10-31T14:06:34;13.50;99.90
1988;DHT22;12775;46.994;15.498;2023-10-31T14:09:01;13.50;99.90
1988;DHT22;12775;46.994;15.498;2023-10-31T14:11:29;13.50;99.90
1988;DHT22;12775;46.994;15.498;2023-10-31T14:13:56;13.60;99.90
1988;DHT22;12775;46.994;15.498;2023-10-31T14:16:23;13.60;99.90
1988;DHT22;12775;46.994;15.498;2023-10-31T14:18:51;13.50;99.90
1988;DHT22;12775;46.994;15.498;2023-10-31T14:21:18;13.40;99.90
1988;DHT22;12775;46.994;15.498;2023-10-31T14:23:45;13.30;99.90
1988;DHT22;12775;46.994;15.498;2023-10-31T14:26:13;13.30;99.90
1988;DHT22;12775;46.994;15.498;2023-10-31T14:28:40;13.20;99.90
1988;DHT22;12775;46.994;15.498;2023-10-31T14:31:07;13.20;99.90
1988;DHT22;12775;46.994;15.498;2023-10-31T14:33:33;13.10;99.90
1988;DHT22;12775;46.994;15.498;2023-10-31T14:36:01;13.00;99.90
1988;DHT22;12775;46.994;15.498;2023-10-31T14:38:28;13.00;99.90
1988;DHT22;12775;46.994;15.498;2023-10-31T14:40:55;13.00;99.90
1988;DHT22;12775;46.994;15.498;2023-10-31T14:43:23;13.00;99.90
1988;DHT22;12775;46.994;15.498;2023-10-31T14:45:49;13.00;99.90
1988;DHT22;12775;46.994;15.498;2023-10-31T14:48:16;13.10;99.90
1988;DHT22;12775;46.994;15.498;2023-10-31T14:50:43;13.10;99.90
1988;DHT22;12775;46.994;15.498;2023-10-31T14:53:11;13.10;99.90
1988;DHT22;12775;46.994;15.498;2023-10-31T14:55:38;13.10;99.90
1988;DHT22;12775;46.994;15.498;2023-10-31T14:58:05;13.10;99.90
1988;DHT22;12775;46.994;15.498;2023-10-31T15:00:32;13.10;99.90
1988;DHT22;12775;46.994;15.498;2023-10-31T15:02:59;13.10;99.90
1988;DHT22;12775;46.994;15.498;2023-10-31T15:05:28;13.20;99.90
1988;DHT22;12775;46.994;15.498;2023-10-31T15:10:21;13.30;99.90
1988;DHT22;12775;46.994;15.498;2023-10-31T15:12:48;13.20;99.90
1988;DHT22;12775;46.994;15.498;2023-10-31T15:15:16;13.20;99.90
1988;DHT22;12775;46.994;15.498;2023-10-31T15:17:43;13.20;99.90
1988;DHT22;12775;46.994;15.498;2023-10-31T15:20:11;13.20;99.90
1988;DHT22;12775;46.994;15.498;2023-10-31T15:22:39;13.30;99.90
1988;DHT22;12775;46.994;15.498;2023-10-31T15:25:08;13.30;99.90
1988;DHT22;12775;46.994;15.498;2023-10-31T15:27:36;13.30;99.90
1988;DHT22;12775;46.994;15.498;2023-10-31T15:30:06;13.30;99.90
1988;DHT22;12775;46.994;15.498;2023-10-31T15:32:34;13.30;99.90
1988;DHT22;12775;46.994;15.498;2023-10-31T15:35:03;13.30;99.90